sensor_id;sensor_type;location;lat;lon;timestamp;pressure;altitude;pressure_sealevel;temperature;humidity
12757;BME280;31601;48.042;12.240;2023-05-22T00:01:35;95760.88;;;17.18;58.05
12757;BME280;31601;48.042;12.240;2023-05-22T00:04:02;95756.50;;;17.12;58.21
12757;BME280;31601;48.042;12.240;2023-05-22T00:06:29;95758.56;;;17.10;58.34
12757;BME280;31601;48.042;12.240;2023-05-22T00:08:55;95752.63;;;17.03;58.68
12757;BME280;31601;48.042;12.240;2023-05-22T00:11:22;95756.31;;;17.02;58.70
12757;BME280;31601;48.042;12.240;2023-05-22T00:13:48;95759.09;;;16.95;58.88
12757;BME280;31601;48.042;12.240;2023-05-22T00:16:14;95762.94;;;16.87;59.03
12757;BME280;31601;48.042;12.240;2023-05-22T00:18:42;95750.13;;;16.84;59.25
12757;BME280;31601;48.042;12.240;2023-05-22T00:21:09;95747.34;;;16.79;59.51
12757;BME280;31601;48.042;12.240;2023-05-22T00:23:35;95750.38;;;16.71;59.84
12757;BME280;31601;48.042;12.240;2023-05-22T00:26:02;95755.69;;;16.71;60.06
12757;BME280;31601;48.042;12.240;2023-05-22T00:28:28;95751.66;;;16.68;60.03
12757;BME280;31601;48.042;12.240;2023-05-22T00:30:55;95759.03;;;16.66;60.08
12757;BME280;31601;48.042;12.240;2023-05-22T00:33:21;95759.59;;;16.68;59.84
12757;BME280;31601;48.042;12.240;2023-05-22T00:35:49;95747.66;;;16.65;59.89
12757;BME280;31601;48.042;12.240;2023-05-22T00:38:27;95758.09;;;16.60;60.15
12757;BME280;31601;48.042;12.240;2023-05-22T00:40:54;95753.19;;;16.52;60.19
12757;BME280;31601;48.042;12.240;2023-05-22T00:43:21;95753.66;;;16.49;60.33
12757;BME280;31601;48.042;12.240;2023-05-22T00:45:47;95759.53;;;16.39;60.50
12757;BME280;31601;48.042;12.240;2023-05-22T00:48:14;95751.47;;;16.34;60.59
12757;BME280;31601;48.042;12.240;2023-05-22T00:50:40;95754.25;;;16.27;60.83
12757;BME280;31601;48.042;12.240;2023-05-22T00:53:08;95752.84;;;16.25;60.82
12757;BME280;31601;48.042;12.240;2023-05-22T00:55:35;95747.59;;;16.13;61.13
12757;BME280;31601;48.042;12.240;2023-05-22T00:58:03;95743.22;;;16.07;61.05
12757;BME280;31601;48.042;12.240;2023-05-22T01:00:32;95750.44;;;16.00;61.07
12757;BME280;31601;48.042;12.240;2023-05-22T01:02:59;95747.56;;;15.89;61.55
12757;BME280;31601;48.042;12.240;2023-05-22T01:05:27;95752.28;;;15.87;61.66
12757;BME280;31601;48.042;12.240;2023-05-22T01:07:53;95750.66;;;15.86;61.55
12757;BME280;31601;48.042;12.240;2023-05-22T01:10:22;95754.81;;;15.82;61.86
12757;BME280;31601;48.042;12.240;2023-05-22T01:12:54;95753.03;;;15.64;62.44
12757;BME280;31601;48.042;12.240;2023-05-22T01:15:31;95755.22;;;15.67;62.36
12757;BME280;31601;48.042;12.240;2023-05-22T01:18:06;95756.84;;;15.68;62.10
12757;BME280;31601;48.042;12.240;2023-05-22T01:20:39;95753.25;;;15.63;62.30
12757;BME280;31601;48.042;12.240;2023-05-22T01:26:31;95757.50;;;15.52;62.81
12757;BME280;31601;48.042;12.240;2023-05-22T01:29:13;95761.88;;;15.58;62.70
12757;BME280;31601;48.042;12.240;2023-05-22T01:31:43;95766.59;;;15.56;62.42
12757;BME280;31601;48.042;12.240;2023-05-22T01:34:11;95762.22;;;15.50;62.65
12757;BME280;31601;48.042;12.240;2023-05-22T01:36:39;95767.22;;;15.28;63.40
12757;BME280;31601;48.042;12.240;2023-05-22T01:39:07;95765.72;;;15.32;62.91
12757;BME280;31601;48.042;12.240;2023-05-22T01:41:34;95774.69;;;15.31;63.04
12757;BME280;31601;48.042;12.240;2023-05-22T01:44:01;95773.50;;;15.27;63.68
12757;BME280;31601;48.042;12.240;2023-05-22T01:46:28;95776.94;;;15.27;63.41
12757;BME280;31601;48.042;12.240;2023-05-22T01:48:56;95774.97;;;15.22;63.70
12757;BME280;31601;48.042;12.240;2023-05-22T01:51:27;95776.47;;;15.18;63.74
12757;BME280;31601;48.042;12.240;2023-05-22T01:53:59;95777.28;;;15.19;63.91
12757;BME280;31601;48.042;12.240;2023-05-22T01:56:31;95778.31;;;14.99;64.63
12757;BME280;31601;48.042;12.240;2023-05-22T01:59:01;95769.38;;;15.00;64.57
12757;BME280;31601;48.042;12.240;2023-05-22T02:01:31;95776.34;;;14.95;64.97
12757;BME280;31601;48.042;12.240;2023-05-22T02:03:59;95774.31;;;14.97;64.45
12757;BME280;31601;48.042;12.240;2023-05-22T02:06:28;95772.34;;;14.92;64.77
12757;BME280;31601;48.042;12.240;2023-05-22T02:08:58;95773.22;;;14.86;65.06
12757;BME280;31601;48.042;12.240;2023-05-22T02:11:26;95785.47;;;14.80;65.01
12757;BME280;31601;48.042;12.240;2023-05-22T02:13:54;95781.06;;;14.56;65.65
12757;BME280;31601;48.042;12.240;2023-05-22T02:16:22;95774.75;;;14.57;65.68
12757;BME280;31601;48.042;12.240;2023-05-22T02:18:48;95777.16;;;14.58;65.25
12757;BME280;31601;48.042;12.240;2023-05-22T02:21:16;95773.50;;;14.59;65.45
12757;BME280;31601;48.042;12.240;2023-05-22T02:23:43;95766.53;;;14.46;66.12
12757;BME280;31601;48.042;12.240;2023-05-22T02:26:09;95764.63;;;14.54;65.58
12757;BME280;31601;48.042;12.240;2023-05-22T02:28:36;95767.28;;;14.54;65.28
12757;BME280;31601;48.042;12.240;2023-05-22T02:31:02;95771.50;;;14.55;65.34
12757;BME280;31601;48.042;12.240;2023-05-22T02:33:29;95772.34;;;14.55;65.07
12757;BME280;31601;48.042;12.240;2023-05-22T02:35:55;95775.03;;;14.48;65.18
12757;BME280;31601;48.042;12.240;2023-05-22T02:38:23;95771.44;;;14.43;65.08
12757;BME280;31601;48.042;12.240;2023-05-22T02:40:49;95771.28;;;14.38;65.00
12757;BME280;31601;48.042;12.240;2023-05-22T02:43:16;95774.56;;;14.33;65.33
12757;BME280;31601;48.042;12.240;2023-05-22T02:45:42;95782.88;;;14.37;65.23
12757;BME280;31601;48.042;12.240;2023-05-22T02:48:09;95787.56;;;14.35;65.47
12757;BME280;31601;48.042;12.240;2023-05-22T02:50:35;95788.16;;;14.37;65.10
12757;BME280;31601;48.042;12.240;2023-05-22T02:53:01;95787.19;;;14.31;65.72
12757;BME280;31601;48.042;12.240;2023-05-22T02:55:29;95784.41;;;14.26;65.66
12757;BME280;31601;48.042;12.240;2023-05-22T02:57:55;95793.91;;;14.27;65.70
12757;BME280;31601;48.042;12.240;2023-05-22T03:00:22;95790.84;;;14.30;65.61
12757;BME280;31601;48.042;12.240;2023-05-22T03:02:49;95793.13;;;14.26;65.60
12757;BME280;31601;48.042;12.240;2023-05-22T03:05:15;95795.19;;;14.24;65.45
12757;BME280;31601;48.042;12.240;2023-05-22T03:07:42;95797.41;;;14.21;65.41
12757;BME280;31601;48.042;12.240;2023-05-22T03:10:09;95794.41;;;14.17;65.50
12757;BME280;31601;48.042;12.240;2023-05-22T03:12:37;95790.59;;;14.13;65.53
12757;BME280;31601;48.042;12.240;2023-05-22T03:15:04;95798.94;;;14.10;65.52
12757;BME280;31601;48.042;12.240;2023-05-22T03:17:31;95794.72;;;14.09;65.67
12757;BME280;31601;48.042;12.240;2023-05-22T03:19:57;95801.22;;;14.06;65.69
12757;BME280;31601;48.042;12.240;2023-05-22T03:22:24;95796.28;;;14.10;65.66
12757;BME280;31601;48.042;12.240;2023-05-22T03:24:50;95797.56;;;14.07;65.92
12757;BME280;31601;48.042;12.240;2023-05-22T03:27:17;95806.91;;;14.03;65.94
12757;BME280;31601;48.042;12.240;2023-05-22T03:29:45;95804.66;;;14.07;65.72
12757;BME280;31601;48.042;12.240;2023-05-22T03:32:12;95801.44;;;14.05;65.86
12757;BME280;31601;48.042;12.240;2023-05-22T03:34:38;95811.50;;;13.89;67.19
12757;BME280;31601;48.042;12.240;2023-05-22T03:37:05;95811.00;;;13.99;67.08
12757;BME280;31601;48.042;12.240;2023-05-22T03:39:33;95807.28;;;14.07;66.50
12757;BME280;31601;48.042;12.240;2023-05-22T03:41:59;95810.91;;;14.12;66.53
12757;BME280;31601;48.042;12.240;2023-05-22T03:44:26;95809.28;;;14.11;66.68
12757;BME280;31601;48.042;12.240;2023-05-22T03:46:54;95802.47;;;14.22;66.63
12757;BME280;31601;48.042;12.240;2023-05-22T03:49:20;95804.53;;;14.20;66.89
12757;BME280;31601;48.042;12.240;2023-05-22T03:51:46;95807.31;;;14.25;66.83
12757;BME280;31601;48.042;12.240;2023-05-22T03:54:13;95810.78;;;14.26;66.49
12757;BME280;31601;48.042;12.240;2023-05-22T03:56:40;95819.00;;;14.36;66.36
12757;BME280;31601;48.042;12.240;2023-05-22T03:59:06;95812.28;;;14.40;66.29
12757;BME280;31601;48.042;12.240;2023-05-22T04:01:32;95821.19;;;14.39;66.35
12757;BME280;31601;48.042;12.240;2023-05-22T04:04:00;95819.16;;;14.41;65.98
12757;BME280;31601;48.042;12.240;2023-05-22T04:06:29;95817.03;;;14.50;65.79
12757;BME280;31601;48.042;12.240;2023-05-22T04:08:57;95819.75;;;14.43;65.89
12757;BME280;31601;48.042;12.240;2023-05-22T04:11:23;95818.59;;;14.58;65.56
12757;BME280;31601;48.042;12.240;2023-05-22T04:13:50;95820.81;;;14.61;65.43
12757;BME280;31601;48.042;12.240;2023-05-22T04:16:16;95821.25;;;14.76;65.00
12757;BME280;31601;48.042;12.240;2023-05-22T04:18:43;95825.31;;;14.79;65.01
12757;BME280;31601;48.042;12.240;2023-05-22T04:21:11;95821.66;;;14.80;64.98
12757;BME280;31601;48.042;12.240;2023-05-22T04:23:37;95831.97;;;14.63;65.70
12757;BME280;31601;48.042;12.240;2023-05-22T04:26:07;95828.78;;;14.54;65.93
12757;BME280;31601;48.042;12.240;2023-05-22T04:28:34;95832.50;;;14.46;66.36
12757;BME280;31601;48.042;12.240;2023-05-22T04:31:00;95834.84;;;14.61;66.31
12757;BME280;31601;48.042;12.240;2023-05-22T04:33:30;95839.69;;;14.64;66.22
12757;BME280;31601;48.042;12.240;2023-05-22T04:35:58;95835.34;;;15.07;65.42
12757;BME280;31601;48.042;12.240;2023-05-22T04:38:27;95830.31;;;15.36;64.20
12757;BME280;31601;48.042;12.240;2023-05-22T04:40:54;95839.94;;;15.61;62.81
12757;BME280;31601;48.042;12.240;2023-05-22T04:43:20;95835.41;;;15.80;61.90
12757;BME280;31601;48.042;12.240;2023-05-22T04:45:50;95832.13;;;15.96;61.00
12757;BME280;31601;48.042;12.240;2023-05-22T04:48:17;95832.84;;;16.15;60.58
12757;BME280;31601;48.042;12.240;2023-05-22T04:50:43;95833.88;;;16.14;61.04
12757;BME280;31601;48.042;12.240;2023-05-22T04:53:10;95835.72;;;16.14;61.73
12757;BME280;31601;48.042;12.240;2023-05-22T04:55:38;95834.22;;;16.29;61.45
12757;BME280;31601;48.042;12.240;2023-05-22T04:58:04;95839.31;;;16.43;60.89
12757;BME280;31601;48.042;12.240;2023-05-22T05:00:31;95840.66;;;16.57;60.28
12757;BME280;31601;48.042;12.240;2023-05-22T05:02:57;95831.09;;;16.68;59.55
12757;BME280;31601;48.042;12.240;2023-05-22T05:05:25;95832.13;;;16.79;59.02
12757;BME280;31601;48.042;12.240;2023-05-22T05:07:51;95842.25;;;17.06;59.18
12757;BME280;31601;48.042;12.240;2023-05-22T05:10:18;95844.56;;;17.43;57.83
12757;BME280;31601;48.042;12.240;2023-05-22T05:12:46;95841.50;;;17.63;56.55
12757;BME280;31601;48.042;12.240;2023-05-22T05:15:13;95845.63;;;17.87;56.09
12757;BME280;31601;48.042;12.240;2023-05-22T05:17:39;95842.94;;;17.99;55.33
12757;BME280;31601;48.042;12.240;2023-05-22T05:20:07;95847.38;;;18.11;55.26
12757;BME280;31601;48.042;12.240;2023-05-22T05:22:33;95846.50;;;18.22;54.60
12757;BME280;31601;48.042;12.240;2023-05-22T05:25:01;95842.81;;;18.23;54.19
12757;BME280;31601;48.042;12.240;2023-05-22T05:27:28;95843.59;;;18.40;53.86
12757;BME280;31601;48.042;12.240;2023-05-22T05:29:56;95852.44;;;18.46;53.33
12757;BME280;31601;48.042;12.240;2023-05-22T05:32:22;95832.94;;;18.57;53.13
12757;BME280;31601;48.042;12.240;2023-05-22T05:34:49;95842.53;;;18.58;53.09
12757;BME280;31601;48.042;12.240;2023-05-22T05:37:15;95836.97;;;18.60;52.99
12757;BME280;31601;48.042;12.240;2023-05-22T05:39:42;95842.97;;;18.89;52.18
12757;BME280;31601;48.042;12.240;2023-05-22T05:42:08;95842.66;;;18.86;51.70
12757;BME280;31601;48.042;12.240;2023-05-22T05:44:35;95836.97;;;18.99;51.28
12757;BME280;31601;48.042;12.240;2023-05-22T05:47:03;95842.72;;;19.13;51.97
12757;BME280;31601;48.042;12.240;2023-05-22T05:49:29;95827.16;;;19.22;51.38
12757;BME280;31601;48.042;12.240;2023-05-22T05:51:56;95834.16;;;19.28;51.51
12757;BME280;31601;48.042;12.240;2023-05-22T05:54:22;95842.78;;;19.40;51.23
12757;BME280;31601;48.042;12.240;2023-05-22T05:56:50;95841.19;;;19.39;51.57
12757;BME280;31601;48.042;12.240;2023-05-22T05:59:17;95850.47;;;19.64;51.45
12757;BME280;31601;48.042;12.240;2023-05-22T06:01:44;95850.81;;;19.45;51.44
12757;BME280;31601;48.042;12.240;2023-05-22T06:04:12;95851.47;;;19.58;51.38
12757;BME280;31601;48.042;12.240;2023-05-22T06:06:39;95856.91;;;19.68;51.46
12757;BME280;31601;48.042;12.240;2023-05-22T06:09:06;95856.09;;;19.90;50.92
12757;BME280;31601;48.042;12.240;2023-05-22T06:11:34;95850.31;;;19.98;50.68
12757;BME280;31601;48.042;12.240;2023-05-22T06:14:01;95856.28;;;20.10;50.99
12757;BME280;31601;48.042;12.240;2023-05-22T06:16:28;95853.44;;;20.22;49.71
12757;BME280;31601;48.042;12.240;2023-05-22T06:18:56;95852.72;;;20.32;49.60
12757;BME280;31601;48.042;12.240;2023-05-22T06:21:24;95856.25;;;20.43;49.85
12757;BME280;31601;48.042;12.240;2023-05-22T06:23:50;95857.41;;;20.57;50.28
12757;BME280;31601;48.042;12.240;2023-05-22T06:26:17;95854.38;;;20.43;49.93
12757;BME280;31601;48.042;12.240;2023-05-22T06:28:44;95855.75;;;20.46;50.01
12757;BME280;31601;48.042;12.240;2023-05-22T06:31:10;95849.56;;;20.40;50.39
12757;BME280;31601;48.042;12.240;2023-05-22T06:33:37;95851.25;;;20.94;48.87
12757;BME280;31601;48.042;12.240;2023-05-22T06:36:05;95847.56;;;21.00;48.77
12757;BME280;31601;48.042;12.240;2023-05-22T06:38:34;95850.72;;;20.92;48.31
12757;BME280;31601;48.042;12.240;2023-05-22T06:41:02;95858.56;;;20.66;49.50
12757;BME280;31601;48.042;12.240;2023-05-22T06:43:28;95854.66;;;20.79;49.50
12757;BME280;31601;48.042;12.240;2023-05-22T06:45:55;95854.88;;;20.35;50.26
12757;BME280;31601;48.042;12.240;2023-05-22T06:48:21;95851.22;;;20.14;51.28
12757;BME280;31601;48.042;12.240;2023-05-22T06:50:47;95856.34;;;20.53;50.05
12757;BME280;31601;48.042;12.240;2023-05-22T06:53:14;95846.75;;;20.95;48.33
12757;BME280;31601;48.042;12.240;2023-05-22T06:55:42;95851.13;;;20.68;49.62
12757;BME280;31601;48.042;12.240;2023-05-22T06:58:08;95850.56;;;20.66;49.52
12757;BME280;31601;48.042;12.240;2023-05-22T07:00:35;95848.19;;;21.23;49.46
12757;BME280;31601;48.042;12.240;2023-05-22T07:03:01;95850.88;;;21.33;48.90
12757;BME280;31601;48.042;12.240;2023-05-22T07:05:28;95852.13;;;21.89;47.94
12757;BME280;31601;48.042;12.240;2023-05-22T07:07:55;95856.69;;;22.24;46.79
12757;BME280;31601;48.042;12.240;2023-05-22T07:10:21;95854.03;;;22.55;45.88
12757;BME280;31601;48.042;12.240;2023-05-22T07:12:52;95860.28;;;21.46;46.21
12757;BME280;31601;48.042;12.240;2023-05-22T07:15:19;95857.13;;;21.54;46.02
12757;BME280;31601;48.042;12.240;2023-05-22T07:17:45;95860.16;;;22.14;45.78
12757;BME280;31601;48.042;12.240;2023-05-22T07:20:12;95856.16;;;21.91;47.69
12757;BME280;31601;48.042;12.240;2023-05-22T07:22:40;95860.16;;;22.14;47.65
12757;BME280;31601;48.042;12.240;2023-05-22T07:25:07;95855.09;;;22.18;46.74
12757;BME280;31601;48.042;12.240;2023-05-22T07:27:33;95856.44;;;22.05;47.30
12757;BME280;31601;48.042;12.240;2023-05-22T07:30:01;95862.06;;;22.40;46.15
12757;BME280;31601;48.042;12.240;2023-05-22T07:32:28;95852.44;;;22.59;45.14
12757;BME280;31601;48.042;12.240;2023-05-22T07:34:54;95850.22;;;23.13;44.32
12757;BME280;31601;48.042;12.240;2023-05-22T07:37:20;95855.63;;;22.82;45.00
12757;BME280;31601;48.042;12.240;2023-05-22T07:39:47;95854.53;;;22.83;46.76
12757;BME280;31601;48.042;12.240;2023-05-22T07:42:13;95856.09;;;23.10;45.22
12757;BME280;31601;48.042;12.240;2023-05-22T07:44:40;95864.69;;;22.86;44.93
12757;BME280;31601;48.042;12.240;2023-05-22T07:47:07;95856.16;;;22.58;45.80
12757;BME280;31601;48.042;12.240;2023-05-22T07:49:34;95853.28;;;22.34;44.41
12757;BME280;31601;48.042;12.240;2023-05-22T07:52:00;95854.84;;;22.35;44.97
12757;BME280;31601;48.042;12.240;2023-05-22T07:54:27;95851.59;;;22.79;44.74
12757;BME280;31601;48.042;12.240;2023-05-22T07:56:53;95848.31;;;23.13;44.86
12757;BME280;31601;48.042;12.240;2023-05-22T07:59:20;95846.38;;;23.29;44.09
12757;BME280;31601;48.042;12.240;2023-05-22T08:01:47;95832.88;;;23.55;42.61
12757;BME280;31601;48.042;12.240;2023-05-22T08:04:15;95844.94;;;23.52;43.31
12757;BME280;31601;48.042;12.240;2023-05-22T08:06:42;95839.56;;;23.52;41.94
12757;BME280;31601;48.042;12.240;2023-05-22T08:09:09;95833.69;;;24.00;42.69
12757;BME280;31601;48.042;12.240;2023-05-22T08:11:35;95833.50;;;23.91;41.99
12757;BME280;31601;48.042;12.240;2023-05-22T08:14:04;95838.03;;;23.91;41.24
12757;BME280;31601;48.042;12.240;2023-05-22T08:16:30;95837.41;;;24.39;40.80
12757;BME280;31601;48.042;12.240;2023-05-22T08:18:57;95828.53;;;24.73;40.75
12757;BME280;31601;48.042;12.240;2023-05-22T08:21:24;95828.00;;;25.19;40.00
12757;BME280;31601;48.042;12.240;2023-05-22T08:23:51;95833.22;;;25.10;40.85
12757;BME280;31601;48.042;12.240;2023-05-22T08:26:17;95823.13;;;24.48;40.05
12757;BME280;31601;48.042;12.240;2023-05-22T08:28:44;95822.28;;;24.19;40.94
12757;BME280;31601;48.042;12.240;2023-05-22T08:31:11;95821.38;;;23.99;41.79
12757;BME280;31601;48.042;12.240;2023-05-22T08:33:38;95826.59;;;24.49;41.30
12757;BME280;31601;48.042;12.240;2023-05-22T08:36:05;95819.09;;;25.29;40.33
12757;BME280;31601;48.042;12.240;2023-05-22T08:38:33;95820.78;;;25.19;40.75
12757;BME280;31601;48.042;12.240;2023-05-22T08:40:59;95816.25;;;25.15;39.22
12757;BME280;31601;48.042;12.240;2023-05-22T08:43:26;95814.97;;;25.55;41.02
12757;BME280;31601;48.042;12.240;2023-05-22T08:45:58;95816.50;;;26.00;40.86
12757;BME280;31601;48.042;12.240;2023-05-22T08:48:28;95817.34;;;25.38;39.62
12757;BME280;31601;48.042;12.240;2023-05-22T08:50:57;95817.13;;;25.91;40.87
12757;BME280;31601;48.042;12.240;2023-05-22T08:53:24;95818.66;;;25.60;39.61
12757;BME280;31601;48.042;12.240;2023-05-22T08:55:55;95809.63;;;26.26;39.19
12757;BME280;31601;48.042;12.240;2023-05-22T08:58:22;95815.72;;;26.46;39.60
12757;BME280;31601;48.042;12.240;2023-05-22T09:00:48;95807.91;;;26.63;38.18
12757;BME280;31601;48.042;12.240;2023-05-22T09:03:15;95813.91;;;26.74;39.28
12757;BME280;31601;48.042;12.240;2023-05-22T09:05:43;95815.16;;;25.40;38.27
12757;BME280;31601;48.042;12.240;2023-05-22T09:08:09;95810.25;;;25.47;38.65
12757;BME280;31601;48.042;12.240;2023-05-22T09:10:36;95818.72;;;26.12;38.75
12757;BME280;31601;48.042;12.240;2023-05-22T09:13:05;95813.97;;;25.70;39.49
12757;BME280;31601;48.042;12.240;2023-05-22T09:15:33;95815.38;;;26.20;39.28
12757;BME280;31601;48.042;12.240;2023-05-22T09:18:01;95816.63;;;26.55;38.43
12757;BME280;31601;48.042;12.240;2023-05-22T09:20:28;95816.84;;;26.12;38.42
12757;BME280;31601;48.042;12.240;2023-05-22T09:22:55;95827.75;;;26.35;37.85
12757;BME280;31601;48.042;12.240;2023-05-22T09:25:22;95823.84;;;26.27;38.40
12757;BME280;31601;48.042;12.240;2023-05-22T09:27:48;95812.56;;;25.73;37.26
12757;BME280;31601;48.042;12.240;2023-05-22T09:30:17;95821.50;;;26.06;37.99
12757;BME280;31601;48.042;12.240;2023-05-22T09:32:44;95819.09;;;25.86;38.80
12757;BME280;31601;48.042;12.240;2023-05-22T09:35:11;95818.75;;;25.73;39.53
12757;BME280;31601;48.042;12.240;2023-05-22T09:37:38;95817.50;;;26.37;39.18
12757;BME280;31601;48.042;12.240;2023-05-22T09:40:05;95816.63;;;26.55;37.95
12757;BME280;31601;48.042;12.240;2023-05-22T09:42:32;95816.41;;;26.98;38.04
12757;BME280;31601;48.042;12.240;2023-05-22T09:45:03;95811.72;;;26.90;35.92
12757;BME280;31601;48.042;12.240;2023-05-22T09:47:31;95799.84;;;27.19;37.41
12757;BME280;31601;48.042;12.240;2023-05-22T09:50:00;95811.50;;;27.28;37.05
12757;BME280;31601;48.042;12.240;2023-05-22T09:52:32;95802.84;;;27.45;37.31
12757;BME280;31601;48.042;12.240;2023-05-22T09:55:01;95798.25;;;27.32;35.49
12757;BME280;31601;48.042;12.240;2023-05-22T09:57:31;95799.56;;;27.21;37.18
12757;BME280;31601;48.042;12.240;2023-05-22T09:59:58;95803.94;;;27.30;36.95
12757;BME280;31601;48.042;12.240;2023-05-22T10:02:26;95803.81;;;27.22;36.11
12757;BME280;31601;48.042;12.240;2023-05-22T10:04:54;95793.28;;;27.11;38.85
12757;BME280;31601;48.042;12.240;2023-05-22T10:07:24;95800.84;;;27.23;38.45
12757;BME280;31601;48.042;12.240;2023-05-22T10:09:55;95789.09;;;27.19;35.92
12757;BME280;31601;48.042;12.240;2023-05-22T10:12:25;95788.78;;;27.35;36.20
12757;BME280;31601;48.042;12.240;2023-05-22T10:14:54;95786.47;;;27.28;37.32
12757;BME280;31601;48.042;12.240;2023-05-22T10:17:21;95793.34;;;27.48;37.84
12757;BME280;31601;48.042;12.240;2023-05-22T10:19:49;95791.78;;;27.19;38.02
12757;BME280;31601;48.042;12.240;2023-05-22T10:22:18;95790.91;;;27.60;36.78
12757;BME280;31601;48.042;12.240;2023-05-22T10:24:47;95783.50;;;27.66;37.23
12757;BME280;31601;48.042;12.240;2023-05-22T10:27:13;95780.69;;;28.08;36.71
12757;BME280;31601;48.042;12.240;2023-05-22T10:29:44;95783.13;;;27.59;35.29
12757;BME280;31601;48.042;12.240;2023-05-22T10:32:17;95789.53;;;27.99;37.39
12757;BME280;31601;48.042;12.240;2023-05-22T10:34:50;95778.97;;;28.12;36.44
12757;BME280;31601;48.042;12.240;2023-05-22T10:37:34;95783.28;;;28.44;35.90
12757;BME280;31601;48.042;12.240;2023-05-22T10:40:04;95777.22;;;28.61;36.38
12757;BME280;31601;48.042;12.240;2023-05-22T10:42:32;95781.59;;;28.57;34.57
12757;BME280;31601;48.042;12.240;2023-05-22T10:44:59;95777.91;;;28.75;35.35
12757;BME280;31601;48.042;12.240;2023-05-22T10:47:26;95778.09;;;28.88;34.76
12757;BME280;31601;48.042;12.240;2023-05-22T10:50:03;95777.97;;;29.02;34.67
12757;BME280;31601;48.042;12.240;2023-05-22T10:52:31;95763.88;;;29.14;34.96
12757;BME280;31601;48.042;12.240;2023-05-22T10:54:59;95775.03;;;28.72;33.19
12757;BME280;31601;48.042;12.240;2023-05-22T10:57:26;95771.59;;;28.03;33.20
12757;BME280;31601;48.042;12.240;2023-05-22T11:00:05;95771.03;;;28.38;34.58
12757;BME280;31601;48.042;12.240;2023-05-22T11:02:38;95770.44;;;28.50;33.79
12757;BME280;31601;48.042;12.240;2023-05-22T11:05:33;95767.41;;;28.43;33.20
12757;BME280;31601;48.042;12.240;2023-05-22T11:08:28;95767.13;;;28.84;35.07
12757;BME280;31601;48.042;12.240;2023-05-22T11:11:09;95759.72;;;29.07;32.54
12757;BME280;31601;48.042;12.240;2023-05-22T11:13:37;95753.84;;;29.14;34.02
12757;BME280;31601;48.042;12.240;2023-05-22T11:16:04;95760.72;;;29.20;35.24
12757;BME280;31601;48.042;12.240;2023-05-22T11:18:30;95759.38;;;29.00;33.24
12757;BME280;31601;48.042;12.240;2023-05-22T11:20:58;95766.94;;;28.81;33.93
12757;BME280;31601;48.042;12.240;2023-05-22T11:23:25;95753.41;;;29.21;33.95
12757;BME280;31601;48.042;12.240;2023-05-22T11:25:52;95755.13;;;29.08;33.54
12757;BME280;31601;48.042;12.240;2023-05-22T11:28:19;95748.94;;;29.16;33.30
12757;BME280;31601;48.042;12.240;2023-05-22T11:30:45;95751.38;;;29.35;33.52
12757;BME280;31601;48.042;12.240;2023-05-22T11:33:13;95747.69;;;29.14;32.39
12757;BME280;31601;48.042;12.240;2023-05-22T11:35:40;95743.34;;;29.04;32.61
12757;BME280;31601;48.042;12.240;2023-05-22T11:38:10;95740.63;;;28.86;31.41
12757;BME280;31601;48.042;12.240;2023-05-22T11:40:37;95745.25;;;29.03;32.14
12757;BME280;31601;48.042;12.240;2023-05-22T11:43:04;95737.28;;;28.89;33.05
12757;BME280;31601;48.042;12.240;2023-05-22T11:45:35;95736.09;;;29.22;33.83
12757;BME280;31601;48.042;12.240;2023-05-22T11:48:02;95734.88;;;29.37;33.59
12757;BME280;31601;48.042;12.240;2023-05-22T11:50:28;95735.06;;;28.91;32.86
12757;BME280;31601;48.042;12.240;2023-05-22T11:52:55;95735.66;;;28.48;32.39
12757;BME280;31601;48.042;12.240;2023-05-22T11:55:23;95732.38;;;28.20;33.02
12757;BME280;31601;48.042;12.240;2023-05-22T11:57:53;95732.16;;;28.70;34.20
12757;BME280;31601;48.042;12.240;2023-05-22T12:00:20;95727.47;;;29.02;34.19
12757;BME280;31601;48.042;12.240;2023-05-22T12:02:46;95725.69;;;28.89;33.24
12757;BME280;31601;48.042;12.240;2023-05-22T12:05:13;95725.13;;;29.27;33.03
12757;BME280;31601;48.042;12.240;2023-05-22T12:07:40;95721.97;;;29.51;32.59
12757;BME280;31601;48.042;12.240;2023-05-22T12:10:07;95723.88;;;29.33;32.25
12757;BME280;31601;48.042;12.240;2023-05-22T12:12:35;95725.34;;;28.82;32.23
12757;BME280;31601;48.042;12.240;2023-05-22T12:15:05;95725.94;;;28.61;33.50
12757;BME280;31601;48.042;12.240;2023-05-22T12:17:34;95725.19;;;28.87;33.64
12757;BME280;31601;48.042;12.240;2023-05-22T12:20:02;95727.31;;;29.07;33.54
12757;BME280;31601;48.042;12.240;2023-05-22T12:22:28;95723.69;;;29.21;34.30
12757;BME280;31601;48.042;12.240;2023-05-22T12:24:55;95722.22;;;28.57;33.51
12757;BME280;31601;48.042;12.240;2023-05-22T12:27:21;95717.72;;;28.44;33.05
12757;BME280;31601;48.042;12.240;2023-05-22T12:29:48;95717.75;;;28.52;33.81
12757;BME280;31601;48.042;12.240;2023-05-22T12:32:20;95713.31;;;28.88;34.47
12757;BME280;31601;48.042;12.240;2023-05-22T12:34:47;95713.56;;;28.29;32.27
12757;BME280;31601;48.042;12.240;2023-05-22T12:37:18;95710.25;;;28.40;33.97
12757;BME280;31601;48.042;12.240;2023-05-22T12:39:53;95704.72;;;28.86;32.88
12757;BME280;31601;48.042;12.240;2023-05-22T12:42:20;95702.03;;;28.86;33.07
12757;BME280;31601;48.042;12.240;2023-05-22T12:44:46;95706.47;;;28.42;35.18
12757;BME280;31601;48.042;12.240;2023-05-22T12:47:13;95702.91;;;28.64;35.29
12757;BME280;31601;48.042;12.240;2023-05-22T12:49:40;95707.34;;;28.28;36.34
12757;BME280;31601;48.042;12.240;2023-05-22T12:52:07;95707.53;;;28.32;36.53
12757;BME280;31601;48.042;12.240;2023-05-22T12:54:33;95699.25;;;28.28;35.33
12757;BME280;31601;48.042;12.240;2023-05-22T12:57:00;95707.88;;;28.39;34.63